Time;durP1;ratioP1;P1;durP2;ratioP2;P2;SDS_P1;SDS_P2;PMS_P1;PMS_P2;Temp;Humidity;BMP_temperature;BMP_pressure;BME280_temperature;BME280_humidity;BME280_pressure;Samples;Min_cycle;Max_cycle;Signal;HPM_P1;HPM_P2
2021/11/27 00:01:54;;;;;;;2.23;0.77;;;2.30;99.90;;;;;;5050044;28;20056;-87
2021/11/27 00:04:20;;;;;;;2.53;1.10;;;2.20;99.90;;;;;;5036626;28;20032;-87
2021/11/27 00:06:46;;;;;;;2.87;0.90;;;2.20;99.90;;;;;;5030087;28;20034;-87
2021/11/27 00:09:12;;;;;;;1.73;0.60;;;2.20;99.90;;;;;;5030289;28;20485;-87
2021/11/27 00:11:39;;;;;;;2.07;0.80;;;2.20;99.90;;;;;;5037898;28;20034;-88
2021/11/27 00:14:06;;;;;;;3.03;0.93;;;2.30;99.90;;;;;;5039186;28;20022;-87
2021/11/27 00:16:33;;;;;;;4.07;1.03;;;2.10;99.90;;;;;;5044129;28;20713;-88
2021/11/27 00:19:00;;;;;;;2.40;0.77;;;2.30;99.90;;;;;;5033186;28;20030;-88
2021/11/27 00:21:28;;;;;;;3.10;0.80;;;2.20;99.90;;;;;;5039822;28;20535;-88
2021/11/27 00:23:57;;;;;;;3.73;1.13;;;2.20;99.90;;;;;;5036375;28;20496;-88
2021/11/27 00:26:26;;;;;;;2.37;0.70;;;2.00;99.90;;;;;;5035197;28;20029;-88
2021/11/27 00:28:52;;;;;;;2.00;0.80;;;2.10;99.90;;;;;;5027313;28;20066;-88
2021/11/27 00:31:23;;;;;;;2.83;0.83;;;2.20;99.90;;;;;;5031788;28;20123;-88
2021/11/27 00:33:49;;;;;;;1.20;0.60;;;2.00;99.90;;;;;;5031880;28;20040;-88
2021/11/27 00:36:16;;;;;;;3.87;0.77;;;2.10;99.90;;;;;;5032095;28;20025;-88
2021/11/27 00:38:51;;;;;;;1.80;0.50;;;2.00;99.90;;;;;;5047594;28;20116;-87
2021/11/27 00:41:18;;;;;;;1.67;0.60;;;1.90;99.90;;;;;;5034883;28;20481;-88
2021/11/27 00:43:48;;;;;;;2.80;0.83;;;2.00;99.90;;;;;;5034838;28;20032;-88
2021/11/27 00:46:18;;;;;;;4.07;0.80;;;1.90;99.90;;;;;;5022007;28;20139;-88
2021/11/27 00:48:46;;;;;;;3.17;0.93;;;2.00;99.90;;;;;;5014963;28;20029;-88
2021/11/27 00:51:17;;;;;;;2.87;0.67;;;2.00;99.90;;;;;;5014545;28;20033;-88
2021/11/27 00:53:43;;;;;;;2.80;0.60;;;1.90;99.90;;;;;;5015737;28;20026;-88
2021/11/27 00:56:09;;;;;;;2.20;0.70;;;2.00;99.90;;;;;;5031355;28;20022;-88
2021/11/27 00:58:36;;;;;;;1.60;0.60;;;1.90;99.90;;;;;;5031373;28;20050;-88
2021/11/27 01:01:06;;;;;;;2.23;0.70;;;1.90;99.90;;;;;;5028877;28;20022;-88
2021/11/27 01:03:34;;;;;;;3.70;0.90;;;1.90;99.90;;;;;;5028524;28;20343;-88
2021/11/27 01:06:03;;;;;;;4.77;0.90;;;2.00;99.90;;;;;;5016218;28;20068;-88
2021/11/27 01:08:29;;;;;;;2.37;0.80;;;2.00;99.90;;;;;;5031332;28;20080;-88
2021/11/27 01:11:10;;;;;;;2.27;0.63;;;1.90;99.90;;;;;;5039155;28;20038;-87
2021/11/27 01:13:44;;;;;;;1.93;0.73;;;2.10;99.90;;;;;;5034639;28;20043;-88
2021/11/27 01:16:10;;;;;;;2.93;1.17;;;2.00;99.90;;;;;;5036012;28;20098;-87
2021/11/27 01:18:47;;;;;;;1.43;0.60;;;2.00;99.90;;;;;;5029950;28;20481;-88
2021/11/27 01:21:17;;;;;;;3.30;0.60;;;1.90;99.90;;;;;;5027842;28;20029;-88
2021/11/27 01:23:44;;;;;;;2.23;0.83;;;1.90;99.90;;;;;;5033461;28;20099;-88
2021/11/27 01:26:13;;;;;;;1.80;0.80;;;2.00;99.90;;;;;;5033099;28;20022;-88
2021/11/27 01:28:41;;;;;;;2.10;0.67;;;1.90;99.90;;;;;;5024938;28;20099;-88
2021/11/27 01:31:07;;;;;;;2.27;0.77;;;1.80;99.90;;;;;;5033262;28;20086;-88
2021/11/27 01:33:33;;;;;;;3.27;0.83;;;1.80;99.90;;;;;;5032370;28;20108;-88
2021/11/27 01:36:05;;;;;;;2.50;0.80;;;1.80;99.90;;;;;;5028581;28;20022;-88
2021/11/27 01:38:32;;;;;;;1.73;0.70;;;1.80;99.90;;;;;;5030307;28;20017;-88
2021/11/27 01:41:01;;;;;;;4.47;1.20;;;1.70;99.90;;;;;;5028722;28;20026;-88
2021/11/27 01:43:31;;;;;;;2.83;1.10;;;1.70;99.90;;;;;;5033268;28;20504;-88
2021/11/27 01:45:58;;;;;;;2.30;0.70;;;1.60;99.90;;;;;;5030481;28;20022;-88
2021/11/27 01:48:25;;;;;;;2.10;0.80;;;1.60;99.90;;;;;;5033138;28;20067;-88
2021/11/27 01:50:58;;;;;;;3.53;0.93;;;1.60;99.90;;;;;;5032855;28;21112;-88
2021/11/27 01:53:27;;;;;;;2.40;1.00;;;1.60;99.90;;;;;;5030475;28;20023;-88
2021/11/27 01:56:00;;;;;;;2.33;1.00;;;1.50;99.90;;;;;;5026707;28;20075;-88
2021/11/27 01:58:29;;;;;;;4.80;1.23;;;1.60;99.90;;;;;;5029320;28;20105;-88
2021/11/27 02:00:59;;;;;;;6.63;1.40;;;1.60;99.90;;;;;;5031602;28;20056;-87
2021/11/27 02:03:25;;;;;;;3.47;1.23;;;1.60;99.90;;;;;;5031184;28;20390;-88
2021/11/27 02:05:54;;;;;;;2.40;0.80;;;1.70;99.90;;;;;;5032290;28;20025;-88
2021/11/27 02:08:20;;;;;;;4.27;1.30;;;1.80;99.90;;;;;;5029863;28;20041;-87
2021/11/27 02:10:46;;;;;;;4.00;1.30;;;1.80;99.90;;;;;;5029154;28;20022;-88
2021/11/27 02:13:13;;;;;;;2.80;0.97;;;1.80;99.90;;;;;;5027323;28;20022;-87
2021/11/27 02:15:39;;;;;;;3.87;1.30;;;1.70;99.90;;;;;;5027274;28;20022;-88
2021/11/27 02:18:06;;;;;;;4.47;1.17;;;1.70;99.90;;;;;;5031334;28;20105;-88
2021/11/27 02:20:39;;;;;;;2.30;1.00;;;1.80;99.90;;;;;;5027362;28;20105;-88
2021/11/27 02:23:06;;;;;;;4.90;1.10;;;1.90;99.90;;;;;;5033128;28;20045;-88
2021/11/27 02:29:06;;;;;;;4.63;1.50;;;1.90;99.90;;;;;;5016294;28;20037;-89
2021/11/27 02:32:02;;;;;;;5.50;1.40;;;1.90;99.90;;;;;;5024919;28;20025;-89
2021/11/27 02:34:44;;;;;;;3.40;1.37;;;1.90;99.90;;;;;;5026469;28;20041;-90
2021/11/27 02:37:54;;;;;;;2.65;0.63;;;1.90;99.90;;;;;;5029051;28;20018;-90
2021/11/27 02:40:26;;;;;;;2.30;1.00;;;1.90;99.90;;;;;;5019178;28;20394;-90
2021/11/27 02:43:17;;;;;;;4.00;1.30;;;1.80;99.90;;;;;;5041524;28;20040;-90
2021/11/27 02:45:54;;;;;;;3.17;1.10;;;1.90;99.90;;;;;;5028853;28;20040;-90
2021/11/27 02:48:41;;;;;;;3.33;1.10;;;1.90;99.90;;;;;;5026556;28;20030;-90
2021/11/27 02:51:37;;;;;;;2.60;0.80;;;1.90;99.90;;;;;;5027195;28;20033;-90
2021/11/27 02:54:03;;;;;;;2.77;1.07;;;1.90;99.90;;;;;;5024463;28;20026;-89
2021/11/27 02:56:29;;;;;;;1.90;0.87;;;1.90;99.90;;;;;;5030800;28;20081;-90
2021/11/27 02:58:55;;;;;;;4.57;1.20;;;1.90;99.90;;;;;;5026918;28;20017;-90
2021/11/27 03:01:22;;;;;;;3.33;1.20;;;1.90;99.90;;;;;;5035350;28;20026;-89
2021/11/27 03:03:48;;;;;;;4.13;1.20;;;1.90;99.90;;;;;;5026511;28;20024;-90
2021/11/27 03:06:17;;;;;;;3.43;1.40;;;1.90;99.90;;;;;;5031212;28;20025;-90
2021/11/27 03:08:43;;;;;;;2.20;0.90;;;1.90;99.90;;;;;;5035509;28;20117;-90
2021/11/27 03:11:08;;;;;;;3.60;1.33;;;2.00;99.90;;;;;;5042974;28;20729;-90
2021/11/27 03:13:37;;;;;;;3.37;1.07;;;1.90;99.90;;;;;;5030294;28;20026;-90
2021/11/27 03:16:04;;;;;;;3.00;1.13;;;1.90;99.90;;;;;;5030268;28;20044;-90
2021/11/27 03:18:29;;;;;;;3.43;1.30;;;2.00;99.90;;;;;;5027929;28;20026;-90
2021/11/27 03:20:57;;;;;;;4.23;1.53;;;2.10;99.90;;;;;;5030925;28;20494;-90
2021/11/27 03:23:23;;;;;;;4.73;1.50;;;2.10;99.90;;;;;;5030387;28;20051;-90
2021/11/27 03:25:51;;;;;;;3.33;1.10;;;2.10;99.90;;;;;;5028859;28;20097;-90
2021/11/27 03:28:17;;;;;;;4.50;1.30;;;2.20;99.90;;;;;;5027648;28;20090;-89
2021/11/27 03:30:43;;;;;;;2.77;1.00;;;2.30;99.90;;;;;;5034350;28;20030;-91
2021/11/27 03:33:09;;;;;;;2.37;0.90;;;2.30;99.90;;;;;;5050030;28;20029;-90
2021/11/27 03:35:35;;;;;;;3.27;1.27;;;2.20;99.90;;;;;;5049845;28;20040;-90
2021/11/27 03:38:00;;;;;;;4.53;1.33;;;2.50;99.90;;;;;;5040329;28;20475;-88
2021/11/27 03:40:27;;;;;;;2.93;1.23;;;2.30;99.90;;;;;;5025394;28;20029;-88
2021/11/27 03:42:53;;;;;;;3.93;0.87;;;2.30;99.90;;;;;;5027749;28;20061;-89
2021/11/27 03:45:20;;;;;;;4.40;1.33;;;2.30;99.90;;;;;;5028398;28;20053;-89
2021/11/27 03:48:12;;;;;;;3.47;1.13;;;2.30;99.90;;;;;;5024250;28;20030;-89
2021/11/27 03:50:45;;;;;;;3.40;1.30;;;2.30;99.90;;;;;;5024334;28;20026;-90
2021/11/27 03:53:19;;;;;;;2.63;0.77;;;2.30;99.90;;;;;;5031743;28;20033;-90
2021/11/27 03:55:45;;;;;;;1.90;0.70;;;2.20;99.90;;;;;;5032591;28;20462;-89
2021/11/27 03:58:11;;;;;;;3.03;0.73;;;2.20;99.90;;;;;;5055139;22;20044;-85
2021/11/27 04:00:39;;;;;;;2.40;1.03;;;2.20;99.90;;;;;;5029706;28;20013;-86
2021/11/27 04:03:13;;;;;;;5.33;1.13;;;2.10;99.90;;;;;;5026021;28;20052;-86
2021/11/27 04:05:46;;;;;;;3.23;1.03;;;2.10;99.90;;;;;;5026524;28;20028;-85
2021/11/27 04:08:12;;;;;;;2.53;0.80;;;2.00;99.90;;;;;;5019758;28;20036;-86
2021/11/27 04:10:38;;;;;;;2.90;0.87;;;2.00;99.90;;;;;;5013295;28;20022;-85
2021/11/27 04:13:07;;;;;;;2.67;0.90;;;2.00;99.90;;;;;;5011737;28;20018;-86
2021/11/27 04:15:33;;;;;;;2.33;0.77;;;2.00;99.90;;;;;;5012155;28;20018;-85
2021/11/27 04:18:01;;;;;;;2.87;0.80;;;2.00;99.90;;;;;;5014075;28;20018;-86
2021/11/27 04:20:28;;;;;;;2.87;0.93;;;2.00;99.90;;;;;;5013985;28;20084;-86
2021/11/27 04:22:54;;;;;;;1.87;0.70;;;2.00;99.90;;;;;;5012797;28;20041;-85
2021/11/27 04:25:22;;;;;;;2.40;0.60;;;2.00;99.90;;;;;;5013782;28;20021;-86
2021/11/27 04:27:49;;;;;;;2.90;0.77;;;2.10;99.90;;;;;;5014056;28;20021;-86
2021/11/27 04:30:19;;;;;;;2.40;0.80;;;2.10;99.90;;;;;;5012988;28;20026;-86
2021/11/27 04:32:46;;;;;;;3.13;0.87;;;2.10;99.90;;;;;;5013315;28;20014;-86
2021/11/27 04:35:12;;;;;;;2.60;0.70;;;2.10;99.90;;;;;;5013861;28;20026;-86
2021/11/27 04:37:38;;;;;;;2.40;0.90;;;2.10;99.90;;;;;;5008709;28;20052;-86
2021/11/27 04:40:05;;;;;;;1.33;0.40;;;2.10;99.90;;;;;;5013915;28;20474;-85
2021/11/27 04:42:31;;;;;;;2.90;0.87;;;2.10;99.90;;;;;;5014185;28;20018;-86
2021/11/27 04:44:57;;;;;;;2.10;0.67;;;2.10;99.90;;;;;;5013274;28;20118;-85
2021/11/27 04:47:23;;;;;;;2.20;0.73;;;2.10;99.90;;;;;;5013668;28;20539;-86
2021/11/27 04:49:49;;;;;;;1.57;0.60;;;2.10;99.90;;;;;;5013580;28;20517;-86
2021/11/27 04:52:14;;;;;;;2.20;0.60;;;2.10;99.90;;;;;;5012821;28;20042;-85
2021/11/27 04:54:40;;;;;;;1.40;0.40;;;2.20;99.90;;;;;;5013306;28;20028;-86
2021/11/27 04:57:06;;;;;;;1.93;0.50;;;2.20;99.90;;;;;;5012814;28;20060;-85
2021/11/27 04:59:31;;;;;;;1.23;0.40;;;2.20;99.90;;;;;;5012829;28;20065;-86
2021/11/27 05:01:57;;;;;;;1.87;0.57;;;2.10;99.90;;;;;;5013152;28;20021;-85
2021/11/27 05:04:23;;;;;;;2.10;0.50;;;2.30;99.90;;;;;;5014336;28;20045;-85
2021/11/27 05:06:48;;;;;;;1.43;0.40;;;2.30;99.90;;;;;;5013720;28;20029;-86
2021/11/27 05:09:14;;;;;;;1.73;0.50;;;2.20;99.90;;;;;;5014416;28;20489;-85
2021/11/27 05:11:40;;;;;;;2.83;0.70;;;2.20;99.90;;;;;;5014075;28;20017;-86
2021/11/27 05:14:06;;;;;;;2.30;0.60;;;2.30;99.90;;;;;;5012235;28;20663;-86
2021/11/27 05:16:32;;;;;;;1.40;0.30;;;2.30;99.90;;;;;;5012010;28;20026;-86
2021/11/27 05:18:58;;;;;;;2.53;1.10;;;2.30;99.90;;;;;;5013091;28;20026;-86
2021/11/27 05:21:27;;;;;;;2.63;0.87;;;2.20;99.90;;;;;;5010527;28;20466;-86
2021/11/27 05:23:53;;;;;;;1.30;0.43;;;2.30;99.90;;;;;;5012719;28;20121;-86
2021/11/27 05:26:18;;;;;;;1.33;0.40;;;2.30;99.90;;;;;;5011904;28;20461;-85
2021/11/27 05:28:47;;;;;;;1.57;0.50;;;2.30;99.90;;;;;;5012520;28;20113;-86
2021/11/27 05:31:17;;;;;;;3.83;0.33;;;2.30;99.90;;;;;;5011999;28;20170;-85
2021/11/27 05:36:16;;;;;;;1.20;0.30;;;2.40;99.90;;;;;;5012922;28;20018;-86
2021/11/27 05:38:47;;;;;;;1.43;0.40;;;2.30;99.90;;;;;;5009526;28;20025;-86
2021/11/27 05:41:14;;;;;;;0.93;0.37;;;2.30;99.90;;;;;;5010827;28;20030;-85
2021/11/27 05:43:39;;;;;;;0.50;0.27;;;2.30;99.90;;;;;;5010776;28;20402;-86
2021/11/27 05:46:05;;;;;;;0.97;0.20;;;2.30;99.90;;;;;;5011969;28;20022;-85
2021/11/27 05:48:31;;;;;;;0.77;0.30;;;2.30;99.90;;;;;;5011893;28;20080;-86
2021/11/27 05:50:57;;;;;;;2.17;0.20;;;2.30;99.90;;;;;;5010989;28;20030;-86
2021/11/27 05:53:22;;;;;;;0.80;0.30;;;2.30;99.90;;;;;;5013007;28;20029;-86
2021/11/27 05:55:49;;;;;;;2.57;0.83;;;2.30;99.90;;;;;;5012972;28;20103;-86
2021/11/27 05:58:17;;;;;;;1.13;0.50;;;2.30;99.90;;;;;;5011270;28;20026;-86
2021/11/27 06:00:44;;;;;;;1.13;0.43;;;2.30;99.90;;;;;;5009788;28;20088;-86
2021/11/27 06:03:10;;;;;;;1.30;0.50;;;2.30;99.90;;;;;;5012937;28;20026;-86
2021/11/27 06:05:36;;;;;;;2.30;0.60;;;2.20;99.90;;;;;;5016418;28;20018;-86
2021/11/27 06:08:03;;;;;;;1.23;0.50;;;2.30;99.90;;;;;;5022247;28;20021;-86
2021/11/27 06:10:29;;;;;;;2.23;0.50;;;2.30;99.90;;;;;;5020943;28;20057;-86
2021/11/27 06:12:55;;;;;;;0.70;0.30;;;2.20;99.90;;;;;;5019510;28;20022;-86
2021/11/27 06:15:21;;;;;;;2.57;0.60;;;2.20;99.90;;;;;;5016600;28;20014;-86
2021/11/27 06:17:47;;;;;;;1.60;0.60;;;2.30;99.90;;;;;;5018415;28;20026;-86
2021/11/27 06:20:12;;;;;;;1.37;0.40;;;2.20;99.90;;;;;;5014292;28;20041;-86
2021/11/27 06:22:38;;;;;;;1.83;0.50;;;2.20;99.90;;;;;;5021911;28;20026;-86
2021/11/27 06:25:05;;;;;;;1.27;0.50;;;2.20;99.90;;;;;;5009867;28;20026;-85
2021/11/27 06:27:31;;;;;;;1.07;0.30;;;2.20;99.90;;;;;;5011605;28;20030;-86
2021/11/27 06:29:57;;;;;;;0.97;0.37;;;2.20;99.90;;;;;;5010404;28;20030;-86
2021/11/27 06:32:23;;;;;;;1.27;0.40;;;2.20;99.90;;;;;;5009254;28;20037;-86
2021/11/27 06:34:51;;;;;;;3.30;0.33;;;2.20;99.90;;;;;;5009613;28;20072;-86
2021/11/27 06:37:20;;;;;;;1.53;0.37;;;2.20;99.90;;;;;;5007595;28;20037;-86
2021/11/27 06:39:47;;;;;;;1.50;0.50;;;2.20;99.90;;;;;;5010919;28;20026;-87
2021/11/27 06:42:13;;;;;;;3.37;0.50;;;2.20;99.90;;;;;;5010851;28;20112;-86
2021/11/27 06:44:47;;;;;;;1.70;0.37;;;2.20;99.90;;;;;;5011250;28;20501;-86
2021/11/27 06:47:21;;;;;;;1.80;0.40;;;2.20;99.90;;;;;;5008572;28;20496;-85
2021/11/27 06:49:48;;;;;;;0.90;0.40;;;2.20;99.90;;;;;;5008887;28;20041;-86
2021/11/27 06:52:15;;;;;;;0.83;0.30;;;2.30;99.90;;;;;;5011523;28;20475;-86
2021/11/27 06:54:41;;;;;;;0.77;0.27;;;2.20;99.90;;;;;;5010185;28;20021;-86
2021/11/27 06:57:08;;;;;;;1.53;0.43;;;2.20;99.90;;;;;;5008433;28;20122;-86
2021/11/27 06:59:35;;;;;;;2.40;0.37;;;2.20;99.90;;;;;;5010171;28;20121;-86
2021/11/27 07:02:03;;;;;;;1.03;0.30;;;2.20;99.90;;;;;;5011084;28;20097;-86
2021/11/27 07:04:30;;;;;;;1.93;0.37;;;2.20;99.90;;;;;;5008483;28;20121;-86
2021/11/27 07:06:56;;;;;;;1.67;0.40;;;2.20;99.90;;;;;;5010004;28;20508;-86
2021/11/27 07:09:22;;;;;;;1.40;0.30;;;2.20;99.90;;;;;;5010300;28;20108;-86
2021/11/27 07:11:48;;;;;;;2.00;0.47;;;2.20;99.90;;;;;;5007831;28;20030;-86
2021/11/27 07:14:14;;;;;;;1.33;0.40;;;2.20;99.90;;;;;;5008805;28;20037;-86
2021/11/27 07:16:40;;;;;;;1.07;0.30;;;2.20;99.90;;;;;;5008885;28;20037;-86
2021/11/27 07:19:06;;;;;;;1.17;0.33;;;2.20;99.90;;;;;;5008698;28;20083;-86
2021/11/27 07:21:31;;;;;;;0.87;0.27;;;2.20;99.90;;;;;;5007810;28;20030;-86
2021/11/27 07:23:57;;;;;;;1.30;0.30;;;2.20;99.90;;;;;;5007741;28;20057;-86
2021/11/27 07:26:24;;;;;;;1.10;0.40;;;2.30;99.90;;;;;;5008988;28;20033;-86
2021/11/27 07:28:50;;;;;;;0.90;0.30;;;2.30;99.90;;;;;;5008895;28;20116;-86
2021/11/27 07:31:16;;;;;;;0.87;0.30;;;2.30;99.90;;;;;;5008424;28;20064;-86
2021/11/27 07:33:46;;;;;;;0.63;0.30;;;2.30;99.90;;;;;;5012164;28;20022;-86
2021/11/27 07:36:12;;;;;;;1.03;0.40;;;2.30;99.90;;;;;;5010825;28;20732;-86
2021/11/27 07:38:38;;;;;;;3.13;0.20;;;2.40;99.90;;;;;;5012050;28;20117;-86
2021/11/27 07:41:04;;;;;;;1.43;0.40;;;2.40;99.90;;;;;;5013603;28;20383;-86
2021/11/27 07:43:30;;;;;;;0.93;0.30;;;2.50;99.90;;;;;;5012894;28;20033;-86
2021/11/27 07:45:56;;;;;;;1.07;0.40;;;2.50;99.90;;;;;;5012408;28;20030;-85
2021/11/27 07:48:24;;;;;;;3.00;0.20;;;2.50;99.90;;;;;;5012474;28;20026;-86
2021/11/27 07:50:49;;;;;;;1.23;0.40;;;2.50;99.90;;;;;;5013974;28;20161;-86
2021/11/27 07:53:15;;;;;;;1.23;0.50;;;2.50;99.90;;;;;;5012521;28;20551;-86
2021/11/27 07:55:41;;;;;;;0.80;0.30;;;2.50;99.90;;;;;;5012042;28;20026;-86
2021/11/27 07:58:07;;;;;;;1.93;0.40;;;2.50;99.90;;;;;;5012058;28;20103;-86
2021/11/27 08:00:32;;;;;;;0.90;0.43;;;2.50;99.90;;;;;;5012458;28;20061;-86
2021/11/27 08:02:58;;;;;;;0.50;0.30;;;2.50;99.90;;;;;;5011763;28;20486;-86
2021/11/27 08:05:27;;;;;;;0.70;0.30;;;2.60;99.90;;;;;;5011729;28;20033;-86
2021/11/27 08:07:53;;;;;;;0.93;0.20;;;2.60;99.90;;;;;;5010389;28;20141;-86
2021/11/27 08:10:18;;;;;;;1.00;0.30;;;2.60;99.90;;;;;;5012040;28;20477;-87
2021/11/27 08:12:44;;;;;;;0.67;0.10;;;2.70;99.90;;;;;;5011247;28;20049;-86
2021/11/27 08:15:10;;;;;;;0.47;0.20;;;2.80;99.90;;;;;;5010495;28;20100;-86
2021/11/27 08:17:37;;;;;;;1.27;0.30;;;2.90;99.90;;;;;;5011006;28;20021;-86
2021/11/27 08:20:07;;;;;;;0.33;0.13;;;3.00;99.90;;;;;;5007388;28;20045;-86
2021/11/27 08:22:34;;;;;;;1.23;0.27;;;3.00;99.90;;;;;;5002860;28;20036;-86
2021/11/27 08:25:03;;;;;;;0.70;0.20;;;2.90;99.90;;;;;;5007780;28;20191;-86
2021/11/27 08:27:29;;;;;;;0.60;0.20;;;2.90;99.90;;;;;;5003981;28;20084;-85
2021/11/27 08:29:55;;;;;;;1.17;0.40;;;2.90;99.90;;;;;;5012517;28;20068;-86
2021/11/27 08:32:21;;;;;;;0.30;0.20;;;2.90;99.90;;;;;;5004648;28;20051;-86
2021/11/27 08:34:47;;;;;;;1.43;0.50;;;2.90;99.90;;;;;;5006892;28;20061;-86
2021/11/27 08:37:16;;;;;;;1.00;0.30;;;2.80;99.90;;;;;;4999725;28;20486;-86
2021/11/27 08:39:47;;;;;;;2.33;0.20;;;2.90;99.90;;;;;;5010383;28;20076;-86
2021/11/27 08:42:17;;;;;;;2.17;0.30;;;2.90;99.90;;;;;;5009627;28;20026;-86
2021/11/27 08:44:43;;;;;;;1.00;0.40;;;2.90;99.90;;;;;;5011726;28;20538;-86
2021/11/27 08:47:09;;;;;;;1.57;0.40;;;2.90;99.90;;;;;;5008893;28;20120;-86
2021/11/27 08:49:40;;;;;;;0.87;0.30;;;3.00;99.90;;;;;;5009430;28;20029;-86
2021/11/27 08:52:08;;;;;;;0.80;0.27;;;3.00;99.90;;;;;;5009864;28;20103;-86
2021/11/27 08:54:34;;;;;;;1.40;0.37;;;3.10;99.90;;;;;;5010190;28;20087;-86
2021/11/27 08:57:00;;;;;;;1.47;0.50;;;3.20;99.90;;;;;;5010600;28;20132;-86
2021/11/27 08:59:25;;;;;;;0.90;0.30;;;3.30;99.90;;;;;;5025853;28;20452;-86
2021/11/27 09:01:53;;;;;;;2.03;0.60;;;3.40;99.90;;;;;;5000344;28;20550;-86
2021/11/27 09:04:19;;;;;;;0.87;0.40;;;3.50;99.90;;;;;;5005824;28;20037;-85
2021/11/27 09:06:45;;;;;;;1.17;0.30;;;3.50;99.90;;;;;;5007533;28;20061;-86
2021/11/27 09:09:11;;;;;;;2.97;0.40;;;3.60;99.90;;;;;;5009413;28;20121;-86
2021/11/27 09:11:37;;;;;;;2.77;0.40;;;3.60;99.90;;;;;;5008069;28;20124;-86
2021/11/27 09:14:04;;;;;;;2.33;0.53;;;3.70;99.90;;;;;;5008224;28;20045;-85
2021/11/27 09:16:30;;;;;;;1.73;0.50;;;3.70;99.90;;;;;;4999505;28;20477;-85
2021/11/27 09:18:55;;;;;;;0.80;0.27;;;3.80;99.90;;;;;;5007173;28;20110;-87
2021/11/27 09:21:30;;;;;;;1.43;0.47;;;3.80;99.90;;;;;;5012094;28;20556;-85
2021/11/27 09:23:57;;;;;;;1.00;0.27;;;3.90;99.90;;;;;;5005748;28;20069;-85
2021/11/27 09:26:22;;;;;;;1.30;0.30;;;4.00;99.90;;;;;;5009659;28;20084;-86
2021/11/27 09:28:48;;;;;;;3.17;0.60;;;4.00;99.90;;;;;;5008456;28;20517;-85
2021/11/27 09:31:14;;;;;;;1.40;0.30;;;4.00;99.90;;;;;;5009004;28;20470;-86
2021/11/27 09:33:43;;;;;;;1.80;0.30;;;4.10;99.90;;;;;;5008463;28;20536;-85
2021/11/27 09:36:14;;;;;;;0.57;0.20;;;4.20;99.90;;;;;;5009882;28;20029;-85
2021/11/27 09:38:45;;;;;;;0.67;0.20;;;4.20;99.90;;;;;;5009086;28;20026;-87
2021/11/27 09:41:44;;;;;;;2.10;0.20;;;4.30;99.90;;;;;;5006709;28;20034;-87
2021/11/27 09:44:18;;;;;;;1.47;0.40;;;4.40;99.90;;;;;;4997798;28;20246;-88
2021/11/27 09:46:50;;;;;;;3.30;0.30;;;4.50;99.90;;;;;;5007621;28;20563;-88
2021/11/27 09:49:22;;;;;;;0.73;0.20;;;4.60;99.90;;;;;;5009305;28;20042;-88
2021/11/27 09:51:54;;;;;;;0.80;0.20;;;4.60;99.90;;;;;;5004275;28;20465;-88
2021/11/27 09:54:21;;;;;;;1.35;0.30;;;4.70;99.90;;;;;;5002314;28;20061;-88
2021/11/27 09:56:52;;;;;;;1.17;0.20;;;4.60;99.90;;;;;;5000638;28;20034;-88
2021/11/27 10:04:32;;;;;;;0.20;0.10;;;4.60;99.90;;;;;;5062035;28;20695;-89
2021/11/27 10:07:04;;;;;;;2.37;0.30;;;4.60;99.90;;;;;;5065142;28;20019;-89
2021/11/27 10:09:37;;;;;;;1.08;0.20;;;4.60;99.90;;;;;;5035685;28;20522;-89
2021/11/27 10:12:11;;;;;;;0.67;0.17;;;4.70;99.90;;;;;;5033965;28;20045;-88
2021/11/27 10:14:42;;;;;;;1.37;0.30;;;4.60;99.90;;;;;;5031640;28;20041;-89
2021/11/27 10:17:28;;;;;;;0.93;0.20;;;4.60;99.90;;;;;;5047201;28;20533;-89
2021/11/27 10:20:03;;;;;;;1.27;0.20;;;4.70;99.90;;;;;;5052422;28;20027;-89
2021/11/27 10:22:43;;;;;;;0.93;0.20;;;4.50;99.90;;;;;;5031432;28;20115;-88
2021/11/27 10:25:33;;;;;;;0.33;0.20;;;4.60;99.90;;;;;;5049901;28;20119;-89
2021/11/27 10:28:17;;;;;;;0.90;0.30;;;4.50;99.90;;;;;;5040968;28;20037;-88
2021/11/27 10:30:52;;;;;;;1.70;0.40;;;4.50;99.90;;;;;;5034494;28;20683;-89
2021/11/27 10:33:19;;;;;;;2.63;0.20;;;4.60;99.90;;;;;;5059545;28;20039;-88
2021/11/27 10:35:59;;;;;;;2.37;0.30;;;4.70;99.90;;;;;;5048729;28;20025;-88
2021/11/27 10:38:38;;;;;;;0.23;0.10;;;4.80;99.90;;;;;;5061420;28;20047;-88
2021/11/27 10:41:04;;;;;;;0.73;0.20;;;4.90;99.90;;;;;;5055250;28;20028;-88
2021/11/27 10:43:35;;;;;;;9.63;0.50;;;4.90;99.90;;;;;;5056222;28;20121;-88
2021/11/27 10:46:07;;;;;;;1.17;0.33;;;4.90;99.90;;;;;;5040040;28;20105;-88
2021/11/27 10:48:46;;;;;;;0.77;0.30;;;5.20;99.90;;;;;;5040892;28;20057;-88
2021/11/27 10:51:19;;;;;;;0.73;0.10;;;5.00;99.90;;;;;;5031264;28;20353;-88
2021/11/27 10:53:54;;;;;;;2.83;0.30;;;5.20;99.90;;;;;;5037330;28;20037;-87
2021/11/27 10:56:38;;;;;;;0.53;0.30;;;5.10;99.90;;;;;;5046258;28;20086;-88
2021/11/27 10:59:08;;;;;;;1.07;0.20;;;5.20;99.90;;;;;;5044690;28;20032;-88
2021/11/27 11:02:24;;;;;;;0.70;0.20;;;5.20;99.90;;;;;;5040988;28;20024;-88
2021/11/27 11:05:03;;;;;;;1.27;0.27;;;5.10;99.90;;;;;;5041076;28;20059;-87
2021/11/27 11:07:30;;;;;;;1.07;0.30;;;5.00;99.90;;;;;;5046374;28;20034;-87
2021/11/27 11:10:32;;;;;;;0.67;0.20;;;5.00;99.90;;;;;;5060553;28;20017;-87
2021/11/27 11:13:13;;;;;;;1.30;0.20;;;4.90;99.90;;;;;;5029389;28;20022;-88
2021/11/27 11:15:46;;;;;;;2.00;0.30;;;4.90;99.90;;;;;;5043828;28;20035;-88
2021/11/27 11:18:21;;;;;;;3.40;0.23;;;4.80;99.90;;;;;;5058317;28;20056;-87
2021/11/27 11:20:56;;;;;;;1.93;0.50;;;4.80;99.90;;;;;;5054924;28;20044;-86
2021/11/27 11:23:30;;;;;;;0.60;0.20;;;4.80;99.90;;;;;;5059130;28;20051;-87
2021/11/27 11:25:58;;;;;;;0.40;0.10;;;4.80;99.90;;;;;;5054126;28;20106;-88
2021/11/27 11:28:30;;;;;;;1.23;0.30;;;4.50;99.90;;;;;;5054837;28;20071;-87
2021/11/27 11:31:01;;;;;;;2.03;0.20;;;4.80;99.90;;;;;;5045281;28;20051;-86
2021/11/27 11:33:28;;;;;;;2.00;0.50;;;4.70;99.90;;;;;;5064277;28;20008;-86
2021/11/27 11:35:54;;;;;;;1.13;0.30;;;4.70;99.90;;;;;;5066807;28;20169;-86
2021/11/27 11:38:20;;;;;;;1.87;0.30;;;4.70;99.90;;;;;;5043827;28;20025;-86
2021/11/27 11:40:49;;;;;;;1.33;0.20;;;4.70;99.90;;;;;;5045381;28;20025;-88
2021/11/27 11:43:16;;;;;;;0.40;0.10;;;4.70;99.90;;;;;;5062944;28;20055;-88
2021/11/27 11:45:42;;;;;;;1.83;0.40;;;4.70;99.90;;;;;;5045074;28;20052;-87
2021/11/27 11:48:08;;;;;;;0.87;0.30;;;4.70;99.90;;;;;;5042293;28;20532;-88
2021/11/27 11:50:43;;;;;;;2.03;0.40;;;4.70;99.90;;;;;;5052203;28;20031;-87
2021/11/27 11:53:32;;;;;;;3.63;0.50;;;4.80;99.90;;;;;;5047181;28;20029;-88
2021/11/27 11:56:03;;;;;;;0.70;0.20;;;4.90;99.90;;;;;;5015619;28;20021;-89
2021/11/27 11:58:37;;;;;;;1.00;0.20;;;5.00;99.90;;;;;;5021278;28;20553;-89
2021/11/27 12:01:25;;;;;;;0.63;0.20;;;4.90;99.90;;;;;;5033169;28;20128;-89
2021/11/27 12:03:52;;;;;;;1.97;0.50;;;4.90;99.90;;;;;;5032634;28;20148;-88
2021/11/27 12:06:25;;;;;;;0.70;0.37;;;4.90;99.90;;;;;;5031297;28;20413;-88
2021/11/27 12:08:54;;;;;;;3.73;0.40;;;4.80;99.90;;;;;;5051537;28;20131;-88
2021/11/27 12:11:53;;;;;;;1.13;0.40;;;4.80;99.90;;;;;;5036562;28;20040;-88
2021/11/27 12:14:22;;;;;;;0.40;0.10;;;4.70;99.90;;;;;;5045912;28;20024;-88
2021/11/27 12:17:03;;;;;;;0.90;0.20;;;4.70;99.90;;;;;;5048668;28;20469;-88
2021/11/27 12:19:36;;;;;;;1.80;0.27;;;4.80;99.90;;;;;;5049322;28;20024;-86
2021/11/27 12:22:22;;;;;;;2.10;0.40;;;4.80;99.90;;;;;;5061893;28;20108;-87
2021/11/27 12:25:18;;;;;;;1.07;0.30;;;4.80;99.90;;;;;;5042189;28;20027;-87
2021/11/27 12:28:02;;;;;;;0.70;0.23;;;4.70;99.90;;;;;;5034643;28;20397;-90
2021/11/27 12:50:13;;;;;;;;;;;;;;;;;;;;;
2021/11/27 12:52:59;;;;;;;0.77;0.20;;;5.20;99.90;;;;;;5034364;28;20040;-90
2021/11/27 13:07:38;;;;;;;1.00;0.13;;;4.80;99.90;;;;;;5074660;28;20089;-89
2021/11/27 13:10:10;;;;;;;0.40;0.17;;;4.70;99.90;;;;;;5067884;28;20123;-88
2021/11/27 13:13:04;;;;;;;;;;;4.60;99.90;;;;;;5057653;28;20428;-88
2021/11/27 13:15:54;;;;;;;2.23;0.90;;;4.70;99.90;;;;;;5069664;28;19915;-88
2021/11/27 13:19:07;;;;;;;0.20;0.10;;;4.50;99.90;;;;;;5047762;22;20050;-88
2021/11/27 13:25:17;;;;;;;0.43;0.13;;;4.10;99.90;;;;;;5009722;28;20037;-88
2021/11/27 13:28:13;;;;;;;0.87;0.20;;;3.90;99.90;;;;;;5028406;28;20060;-87
2021/11/27 13:30:39;;;;;;;0.20;0.10;;;4.00;99.90;;;;;;5025985;28;20030;-88
2021/11/27 13:33:50;;;;;;;0.63;0.10;;;3.50;99.90;;;;;;5028370;28;20025;-86
2021/11/27 13:36:36;;;;;;;0.30;0.00;;;3.10;99.90;;;;;;5026928;28;20022;-86
2021/11/27 13:39:16;;;;;;;0.47;0.10;;;2.90;99.90;;;;;;5030915;28;20453;-86
2021/11/27 13:41:44;;;;;;;0.13;0.00;;;2.80;99.90;;;;;;5023227;28;20025;-86
2021/11/27 13:44:10;;;;;;;0.20;0.10;;;2.90;99.90;;;;;;5027574;28;20034;-85
2021/11/27 13:46:58;;;;;;;0.10;0.00;;;3.00;99.90;;;;;;5031084;28;20087;-86
2021/11/27 13:49:33;;;;;;;0.23;0.00;;;3.20;99.90;;;;;;5031045;28;20116;-86
2021/11/27 13:52:01;;;;;;;0.10;0.00;;;3.40;99.90;;;;;;5018812;28;20486;-85
2021/11/27 13:54:32;;;;;;;0.00;0.00;;;3.60;99.90;;;;;;5029451;28;20112;-86
2021/11/27 13:57:00;;;;;;;0.03;0.00;;;3.60;99.90;;;;;;5022117;28;20026;-86
2021/11/27 13:59:29;;;;;;;0.33;0.10;;;3.70;99.90;;;;;;5024931;28;20022;-86
2021/11/27 14:02:00;;;;;;;1.90;0.00;;;3.50;99.90;;;;;;5020560;28;20057;-86